createdAt,value
2023-01-10T00:19:10.820Z,100540.56
2023-01-10T00:21:39.861Z,100550.13
2023-01-10T00:24:19.412Z,100545.16
2023-01-10T00:26:53.385Z,100545.59
2023-01-10T00:29:24.299Z,100550.59
2023-01-10T00:31:51.138Z,100555.81
2023-01-10T00:34:18.045Z,100557.28
2023-01-10T00:36:47.444Z,100569.00
2023-01-10T00:39:16.003Z,100563.78
2023-01-10T00:42:01.621Z,100571.06
2023-01-10T00:44:28.541Z,100575.25
2023-01-10T00:46:55.431Z,100575.91
2023-01-10T00:49:23.004Z,100579.44
2023-01-10T00:51:49.924Z,100575.72
2023-01-10T00:54:16.868Z,100581.59
2023-01-10T00:56:44.903Z,100591.16
2023-01-10T00:59:11.806Z,100596.16
2023-01-10T01:01:38.744Z,100595.31
2023-01-10T01:04:05.901Z,100607.00
2023-01-10T01:06:32.865Z,100622.59
2023-01-10T01:08:59.791Z,100620.91
2023-01-10T01:11:26.750Z,100621.56
2023-01-10T01:13:53.765Z,100631.97
2023-01-10T01:16:21.100Z,100643.44
2023-01-10T01:18:48.267Z,100649.50
2023-01-10T01:21:15.131Z,100665.09
2023-01-10T01:23:42.648Z,100666.16
2023-01-10T01:26:11.204Z,100673.84
2023-01-10T01:28:38.320Z,100677.38
2023-01-10T01:31:10.172Z,100679.44
2023-01-10T01:33:40.108Z,100681.31
2023-01-10T01:36:12.337Z,100684.88
2023-01-10T01:38:41.232Z,100690.28
2023-01-10T01:41:26.466Z,100701.50
2023-01-10T01:44:17.706Z,100709.63
2023-01-10T01:46:52.902Z,100713.19
2023-01-10T01:49:24.069Z,100717.97
2023-01-10T01:51:59.882Z,100730.25
2023-01-10T01:54:28.132Z,100732.56
2023-01-10T01:57:00.834Z,100738.34
2023-01-10T01:59:34.849Z,100743.56
2023-01-10T02:02:07.744Z,100737.75
2023-01-10T02:04:56.227Z,100742.97
2023-01-10T02:07:26.317Z,100753.56
2023-01-10T02:09:58.820Z,100752.94
2023-01-10T02:12:29.689Z,100759.19
2023-01-10T02:14:57.460Z,100759.81
2023-01-10T02:17:24.453Z,100766.88
2023-01-10T02:19:57.506Z,100769.38
2023-01-10T02:22:58.180Z,100778.53
2023-01-10T02:25:53.231Z,100781.88
2023-01-10T02:28:41.686Z,100787.28
2023-01-10T02:31:37.831Z,100783.13
2023-01-10T02:34:23.949Z,100792.88
2023-01-10T02:37:13.287Z,100801.63
2023-01-10T02:40:05.028Z,100797.06
2023-01-10T02:42:49.695Z,100798.09
2023-01-10T02:45:29.874Z,100802.66
2023-01-10T02:47:58.126Z,100798.28
2023-01-10T02:50:37.330Z,100798.09
2023-01-10T02:53:20.234Z,100808.06
2023-01-10T02:56:28.843Z,100806.19
2023-01-10T02:58:55.684Z,100817.44
2023-01-10T03:01:46.083Z,100822.03
2023-01-10T03:08:04.346Z,100823.06
2023-01-10T03:10:45.130Z,100823.28
2023-01-10T03:13:20.482Z,100826.41
2023-01-10T03:15:49.739Z,100838.03
2023-01-10T03:18:22.355Z,100836.59
2023-01-10T03:20:52.669Z,100836.81
2023-01-10T03:23:22.492Z,100845.34
2023-01-10T03:25:52.454Z,100845.13
2023-01-10T03:28:30.784Z,100849.31
2023-01-10T03:31:23.490Z,100853.84
2023-01-10T03:33:50.780Z,100850.94
2023-01-10T03:36:47.798Z,100864.22
2023-01-10T03:39:35.870Z,100863.63
2023-01-10T03:42:13.605Z,100869.63
2023-01-10T03:45:02.505Z,100887.09
2023-01-10T03:47:45.674Z,100892.47
2023-01-10T03:50:17.891Z,100897.44
2023-01-10T03:52:45.675Z,100904.09
2023-01-10T03:55:15.227Z,100912.84
2023-01-10T03:57:43.184Z,100913.22
2023-01-10T04:00:11.099Z,100923.44
2023-01-10T04:02:38.249Z,100934.03
2023-01-10T04:05:05.905Z,100924.91
2023-01-10T04:07:32.810Z,100920.09
2023-01-10T04:09:59.781Z,100929.63
2023-01-10T04:12:26.772Z,100933.16
2023-01-10T04:14:53.969Z,100935.63
2023-01-10T04:17:20.925Z,100942.06
2023-01-10T04:19:47.733Z,100948.13
2023-01-10T04:22:15.039Z,100953.72
2023-01-10T04:24:42.137Z,100952.69
2023-01-10T04:27:09.155Z,100955.59
2023-01-10T04:29:36.094Z,100951.81
2023-01-10T04:32:03.128Z,100959.94
2023-01-10T04:34:30.072Z,100964.34
2023-01-10T04:36:56.989Z,100970.44
2023-01-10T04:39:24.553Z,100975.59
2023-01-10T04:41:51.452Z,100976.88
2023-01-10T04:44:18.668Z,100977.06
2023-01-10T04:46:45.813Z,100977.78
2023-01-10T04:49:12.899Z,100977.78
2023-01-10T04:51:39.946Z,100983.16
2023-01-10T04:54:07.093Z,100989.88
2023-01-10T04:56:34.045Z,100998.97
2023-01-10T04:59:00.929Z,100999.88
2023-01-10T05:01:28.034Z,101013.63
2023-01-10T05:03:56.935Z,101018.84
2023-01-10T05:06:24.864Z,101021.34
2023-01-10T05:08:52.010Z,101022.00
2023-01-10T05:11:18.779Z,101025.69
2023-01-10T05:13:47.841Z,101024.69
2023-01-10T05:16:15.173Z,101023.81
2023-01-10T05:18:42.480Z,101028.22
2023-01-10T05:21:11.825Z,101036.13
2023-01-10T05:23:39.690Z,101044.03
2023-01-10T05:26:19.430Z,101050.28
2023-01-10T05:28:47.406Z,101059.88
2023-01-10T05:31:17.482Z,101071.72
2023-01-10T05:33:48.951Z,101081.25
2023-01-10T05:36:17.028Z,101081.44
2023-01-10T05:38:43.879Z,101079.59
2023-01-10T05:41:11.161Z,101076.84
2023-01-10T05:43:38.203Z,101086.56
2023-01-10T05:46:05.446Z,101094.31
2023-01-10T05:48:32.452Z,101100.53
2023-01-10T05:50:59.517Z,101106.91
2023-01-10T05:53:26.442Z,101106.72
2023-01-10T05:55:59.762Z,101111.69
2023-01-10T05:58:27.630Z,101110.28
2023-01-10T06:00:56.388Z,101118.75
2023-01-10T06:03:23.631Z,101115.59
2023-01-10T06:05:50.469Z,101115.75
2023-01-10T06:08:17.423Z,101119.44
2023-01-10T06:10:44.706Z,101126.56
2023-01-10T06:13:12.465Z,101136.31
2023-01-10T06:15:45.779Z,101139.00
2023-01-10T06:18:12.844Z,101141.50
2023-01-10T06:20:43.379Z,101146.72
2023-01-10T06:23:10.844Z,101157.78
2023-01-10T06:25:40.923Z,101161.97
2023-01-10T06:28:09.366Z,101170.66
2023-01-10T06:30:36.216Z,101175.19
2023-01-10T06:33:07.319Z,101173.25
2023-01-10T06:35:35.129Z,101172.53
2023-01-10T06:38:02.106Z,101177.38
2023-01-10T06:40:29.747Z,101183.53
2023-01-10T06:42:56.754Z,101188.19
2023-01-10T06:45:23.938Z,101188.13
2023-01-10T06:47:50.928Z,101189.69
2023-01-10T06:50:17.962Z,101189.50
2023-01-10T06:52:45.268Z,101189.97
2023-01-10T06:55:12.094Z,101188.88
2023-01-10T06:57:39.137Z,101200.50
